createdAt,value
2017-11-30T00:01:21.253Z,12.23
2017-11-30T00:03:47.406Z,11.80
2017-11-30T00:06:13.530Z,13.53
2017-11-30T00:08:39.646Z,14.13
2017-11-30T00:11:05.778Z,11.70
2017-11-30T00:13:31.905Z,13.10
2017-11-30T00:15:57.974Z,10.20
2017-11-30T00:18:24.105Z,11.73
2017-11-30T00:20:50.237Z,15.27
2017-11-30T00:23:16.393Z,10.93
2017-11-30T00:25:42.510Z,11.67
2017-11-30T00:28:08.622Z,13.50
2017-11-30T00:30:34.698Z,13.67
2017-11-30T00:33:00.861Z,14.90
2017-11-30T00:35:27.009Z,15.50
2017-11-30T00:37:53.197Z,12.77
2017-11-30T00:40:19.315Z,13.53
2017-11-30T00:42:57.581Z,12.63
2017-11-30T00:45:24.009Z,12.57
2017-11-30T00:47:50.102Z,16.93
2017-11-30T00:50:16.245Z,13.13
2017-11-30T00:52:42.357Z,12.87
2017-11-30T00:55:08.511Z,13.43
2017-11-30T00:57:34.613Z,12.20
2017-11-30T01:00:00.778Z,14.50
2017-11-30T01:02:26.899Z,15.13
2017-11-30T01:04:53.027Z,14.57
2017-11-30T01:07:19.192Z,11.70
2017-11-30T01:09:45.360Z,12.73
2017-11-30T01:12:11.462Z,14.17
2017-11-30T01:14:37.598Z,11.37
2017-11-30T01:17:03.733Z,12.20
2017-11-30T01:19:29.834Z,11.40
2017-11-30T01:21:55.970Z,11.80
2017-11-30T01:24:22.073Z,10.30
2017-11-30T01:26:48.193Z,11.70
2017-11-30T01:29:14.285Z,15.97
2017-11-30T01:31:40.386Z,11.00
2017-11-30T01:34:06.566Z,11.20
2017-11-30T01:36:32.701Z,12.23
2017-11-30T01:38:58.823Z,9.10
2017-11-30T01:41:24.929Z,11.87
2017-11-30T01:43:51.161Z,10.90
2017-11-30T01:46:17.280Z,9.60
2017-11-30T01:48:43.357Z,11.53
2017-11-30T01:51:09.457Z,12.63
2017-11-30T01:53:35.582Z,11.47
2017-11-30T01:56:01.686Z,12.30
2017-11-30T01:58:27.838Z,11.10
2017-11-30T02:00:54.003Z,12.50
2017-11-30T02:03:20.106Z,15.17
2017-11-30T02:05:46.237Z,10.90
2017-11-30T02:08:12.437Z,10.87
2017-11-30T02:10:38.597Z,11.87
2017-11-30T02:13:04.713Z,10.90
2017-11-30T02:15:30.929Z,15.23
2017-11-30T02:17:57.033Z,10.00
2017-11-30T02:20:23.155Z,13.10
2017-11-30T02:22:49.293Z,11.37
2017-11-30T02:25:15.381Z,11.50
2017-11-30T02:27:41.480Z,12.67
2017-11-30T02:30:07.555Z,16.00
2017-11-30T02:32:33.631Z,12.67
2017-11-30T02:34:59.714Z,12.40
2017-11-30T02:37:25.794Z,13.70
2017-11-30T02:39:51.989Z,13.77
2017-11-30T02:42:18.061Z,12.20
2017-11-30T02:44:44.132Z,14.40
2017-11-30T02:47:10.218Z,15.30
2017-11-30T02:49:36.442Z,12.50
2017-11-30T02:52:02.504Z,13.67
2017-11-30T02:54:28.572Z,16.03
2017-11-30T02:56:54.690Z,14.60
2017-11-30T02:59:20.737Z,18.30
2017-11-30T03:01:46.851Z,13.97
2017-11-30T03:04:12.945Z,17.03
2017-11-30T03:06:39.417Z,12.37
2017-11-30T03:09:05.947Z,13.07
2017-11-30T03:11:32.068Z,11.90
2017-11-30T03:13:58.160Z,13.30
2017-11-30T03:16:24.299Z,14.43
2017-11-30T03:18:50.366Z,15.93
2017-11-30T03:21:16.509Z,14.17
2017-11-30T03:23:42.631Z,16.07
2017-11-30T03:26:08.793Z,15.50
2017-11-30T03:28:35.038Z,14.77
2017-11-30T03:31:01.143Z,15.63
2017-11-30T03:33:27.249Z,14.33
2017-11-30T03:35:53.362Z,15.47
2017-11-30T03:38:19.466Z,15.43
2017-11-30T03:40:45.602Z,17.53
2017-11-30T03:43:11.743Z,15.87
2017-11-30T03:45:37.885Z,18.40
2017-11-30T03:48:04.031Z,16.90
2017-11-30T03:50:30.549Z,19.43
2017-11-30T03:52:56.658Z,24.50
2017-11-30T03:55:22.813Z,23.13
2017-11-30T03:57:48.906Z,15.63
2017-11-30T04:00:15.057Z,20.17
2017-11-30T04:02:41.171Z,18.83
2017-11-30T04:05:07.342Z,21.53
2017-11-30T04:07:33.482Z,21.70
2017-11-30T04:09:59.808Z,19.70
2017-11-30T04:12:25.937Z,19.50
2017-11-30T04:14:52.085Z,20.17
2017-11-30T04:17:18.209Z,21.50
2017-11-30T04:19:44.297Z,15.57
2017-11-30T04:22:10.412Z,14.30
2017-11-30T04:24:36.447Z,16.13
2017-11-30T04:27:02.557Z,16.10
2017-11-30T04:29:28.738Z,15.50
2017-11-30T04:31:54.846Z,13.33
2017-11-30T04:34:20.946Z,13.00
2017-11-30T04:36:47.074Z,15.60
2017-11-30T04:39:13.218Z,15.20
2017-11-30T04:41:39.336Z,31.43
2017-11-30T04:44:05.505Z,14.80
2017-11-30T04:46:31.654Z,16.83
2017-11-30T04:48:57.737Z,14.30
2017-11-30T04:51:23.926Z,18.70
2017-11-30T04:53:50.038Z,16.00
2017-11-30T04:56:16.237Z,20.87
2017-11-30T04:58:42.357Z,17.00
2017-11-30T05:01:08.477Z,17.20
2017-11-30T05:03:34.693Z,16.30
2017-11-30T05:06:00.778Z,17.83
2017-11-30T05:08:26.852Z,21.00
2017-11-30T05:10:52.962Z,19.13
2017-11-30T05:13:19.182Z,18.90
2017-11-30T05:15:45.374Z,21.10
2017-11-30T05:18:11.501Z,20.90
2017-11-30T05:20:37.645Z,22.60
2017-11-30T05:23:03.738Z,20.10
2017-11-30T05:25:29.854Z,20.90
2017-11-30T05:27:55.907Z,22.60
2017-11-30T05:30:22.122Z,24.33
2017-11-30T05:32:48.246Z,26.33
2017-11-30T05:35:14.394Z,24.37
2017-11-30T05:37:40.513Z,19.97
2017-11-30T05:40:07.333Z,18.80
2017-11-30T05:42:33.508Z,17.27
2017-11-30T05:44:59.640Z,18.80
2017-11-30T05:47:25.793Z,18.73
2017-11-30T05:49:51.946Z,22.73
2017-11-30T05:52:18.064Z,22.60
2017-11-30T05:54:44.165Z,19.80
2017-11-30T05:57:10.288Z,22.40
2017-11-30T05:59:36.409Z,21.43
2017-11-30T06:02:02.573Z,21.67
2017-11-30T06:04:28.682Z,26.47
2017-11-30T06:06:54.769Z,31.30
2017-11-30T06:09:20.908Z,24.07
2017-11-30T06:11:47.149Z,20.67
2017-11-30T06:14:13.339Z,22.47
2017-11-30T06:16:39.430Z,21.87
2017-11-30T06:19:05.571Z,22.00
2017-11-30T06:21:31.639Z,23.47
2017-11-30T06:23:57.793Z,21.80
2017-11-30T06:26:23.938Z,23.13
2017-11-30T06:28:50.089Z,23.47
2017-11-30T06:31:16.245Z,20.63
2017-11-30T06:33:42.402Z,16.03
2017-11-30T06:36:08.579Z,19.27
2017-11-30T06:38:34.743Z,20.23
2017-11-30T06:41:00.917Z,16.40
2017-11-30T06:43:27.043Z,22.30
2017-11-30T06:45:53.202Z,23.93
2017-11-30T06:48:19.394Z,21.87
2017-11-30T06:50:45.527Z,21.60
2017-11-30T06:53:11.698Z,21.63
2017-11-30T06:55:37.857Z,21.50
2017-11-30T06:58:04.013Z,19.53
2017-11-30T07:00:30.154Z,22.93
2017-11-30T07:02:56.309Z,23.63
2017-11-30T07:05:22.459Z,24.00
2017-11-30T07:07:48.570Z,28.77
2017-11-30T07:10:14.754Z,26.27
2017-11-30T07:12:40.861Z,27.20
2017-11-30T07:15:06.963Z,30.10
2017-11-30T07:17:33.197Z,28.77
2017-11-30T07:19:59.321Z,35.80
2017-11-30T07:22:25.506Z,33.90
2017-11-30T07:24:51.705Z,31.83
2017-11-30T07:27:17.831Z,29.00
2017-11-30T07:29:44.054Z,28.83
2017-11-30T07:32:10.164Z,27.70
2017-11-30T07:34:36.312Z,20.13
2017-11-30T07:37:02.414Z,22.70
2017-11-30T07:39:28.561Z,24.40
2017-11-30T07:41:54.690Z,28.80
2017-11-30T07:44:20.846Z,21.63
2017-11-30T07:46:47.010Z,33.80
2017-11-30T07:49:13.133Z,23.37
2017-11-30T07:51:39.258Z,22.50
2017-11-30T07:54:05.383Z,22.90
2017-11-30T07:56:31.486Z,24.93
2017-11-30T07:58:57.609Z,24.17
2017-11-30T08:01:23.678Z,25.07
2017-11-30T08:03:49.829Z,20.87
2017-11-30T08:06:15.958Z,19.57
2017-11-30T08:08:42.064Z,19.80
2017-11-30T08:11:08.150Z,21.50
2017-11-30T08:13:34.275Z,18.83
2017-11-30T08:16:00.392Z,22.17
2017-11-30T08:18:26.503Z,28.50
2017-11-30T08:20:52.622Z,23.40
2017-11-30T08:23:18.789Z,25.13
2017-11-30T08:25:44.953Z,18.83
2017-11-30T08:28:11.134Z,18.73
2017-11-30T08:30:37.249Z,20.40
2017-11-30T08:33:03.366Z,20.03
2017-11-30T08:35:29.478Z,20.03
2017-11-30T08:37:55.626Z,18.10
2017-11-30T08:40:21.778Z,18.80
2017-11-30T08:42:47.934Z,18.73
2017-11-30T08:45:14.045Z,17.30
2017-11-30T08:47:40.195Z,19.83
2017-11-30T08:50:06.369Z,17.90
2017-11-30T08:52:32.433Z,19.83
2017-11-30T08:54:58.613Z,16.80
2017-11-30T08:57:24.740Z,17.63
2017-11-30T08:59:50.884Z,20.63
2017-11-30T09:02:17.090Z,19.90
2017-11-30T09:04:43.179Z,19.57
2017-11-30T09:07:09.303Z,19.23
2017-11-30T09:09:35.462Z,20.27
2017-11-30T09:12:01.602Z,20.37
2017-11-30T09:14:27.662Z,20.67
2017-11-30T09:16:53.813Z,19.83
2017-11-30T09:19:19.935Z,17.03
2017-11-30T09:21:46.067Z,22.60
2017-11-30T09:24:12.188Z,19.30
2017-11-30T09:26:38.291Z,20.50
2017-11-30T09:29:04.405Z,22.27
2017-11-30T09:31:30.518Z,22.53
2017-11-30T09:33:56.685Z,21.47
2017-11-30T09:36:23.854Z,23.40
2017-11-30T09:38:49.999Z,24.00
2017-11-30T09:41:16.170Z,21.63
2017-11-30T09:43:42.308Z,24.50
2017-11-30T09:46:08.667Z,16.70
2017-11-30T09:48:34.713Z,22.47
2017-11-30T09:51:00.854Z,25.23
2017-11-30T09:53:27.030Z,25.47
2017-11-30T09:55:53.141Z,18.57
2017-11-30T09:58:19.286Z,18.50
2017-11-30T10:00:45.466Z,17.17
2017-11-30T10:03:11.597Z,15.13
2017-11-30T10:05:37.710Z,15.37
2017-11-30T10:08:03.797Z,23.90
2017-11-30T10:10:29.993Z,16.47
2017-11-30T10:12:56.068Z,12.50
2017-11-30T10:15:22.206Z,18.87
2017-11-30T10:17:48.337Z,17.07
2017-11-30T10:20:14.461Z,16.67
2017-11-30T10:22:40.506Z,17.83
2017-11-30T10:25:06.650Z,13.03
2017-11-30T10:27:32.777Z,14.10
2017-11-30T10:29:58.865Z,18.17
2017-11-30T10:32:25.049Z,15.77
2017-11-30T10:34:51.180Z,16.93
2017-11-30T10:37:17.354Z,12.00
2017-11-30T10:39:43.465Z,14.87
2017-11-30T10:42:09.675Z,14.07
2017-11-30T10:44:35.846Z,12.60
2017-11-30T10:47:01.973Z,14.50
2017-11-30T10:49:28.149Z,14.13
2017-11-30T10:51:54.239Z,13.00
2017-11-30T10:54:20.341Z,13.70
2017-11-30T10:56:46.432Z,13.77
2017-11-30T10:59:12.557Z,13.60
2017-11-30T11:01:38.783Z,14.83
2017-11-30T11:04:04.946Z,11.63
2017-11-30T11:06:31.065Z,15.00
2017-11-30T11:08:57.217Z,14.70
2017-11-30T11:11:23.293Z,14.77
2017-11-30T11:13:49.412Z,19.13
2017-11-30T11:16:15.538Z,18.50
2017-11-30T11:18:41.638Z,13.60
2017-11-30T11:21:07.767Z,14.60
2017-11-30T11:23:33.873Z,13.70
2017-11-30T11:26:00.048Z,16.40
2017-11-30T11:28:26.151Z,13.80
2017-11-30T11:30:52.274Z,13.70
2017-11-30T11:33:18.393Z,13.30
2017-11-30T11:35:44.498Z,15.20
2017-11-30T11:38:10.642Z,15.77
2017-11-30T11:40:36.698Z,12.07
2017-11-30T11:43:02.826Z,19.87
2017-11-30T11:45:28.958Z,16.00
2017-11-30T11:47:55.114Z,14.27
2017-11-30T11:50:21.266Z,22.00
2017-11-30T11:52:47.372Z,15.30
2017-11-30T11:55:13.540Z,19.73
2017-11-30T11:57:39.646Z,19.33
2017-11-30T12:00:05.814Z,19.07
2017-11-30T12:02:31.966Z,18.70
2017-11-30T12:04:58.104Z,18.63
2017-11-30T12:07:24.250Z,18.30
2017-11-30T12:09:50.346Z,21.80
2017-11-30T12:12:16.473Z,21.70
2017-11-30T12:14:42.580Z,17.47
2017-11-30T12:17:08.670Z,21.90
2017-11-30T12:19:34.783Z,26.47
2017-11-30T12:22:00.915Z,25.80
2017-11-30T12:24:27.072Z,20.23
2017-11-30T12:26:53.164Z,21.83
2017-11-30T12:29:19.310Z,22.63
2017-11-30T12:31:45.534Z,23.50
2017-11-30T12:34:11.605Z,22.23
2017-11-30T12:36:37.753Z,24.70
2017-11-30T12:39:03.806Z,24.60
2017-11-30T12:41:29.924Z,23.20
2017-11-30T12:43:56.062Z,25.30
2017-11-30T12:46:22.172Z,20.90
2017-11-30T12:48:48.316Z,23.10
2017-11-30T12:51:14.773Z,23.67
2017-11-30T12:53:40.950Z,24.77
2017-11-30T12:56:07.086Z,24.87
2017-11-30T12:58:33.197Z,21.10
2017-11-30T13:00:59.319Z,21.10
2017-11-30T13:03:25.485Z,17.10
2017-11-30T13:05:51.563Z,18.87
2017-11-30T13:08:17.707Z,21.30
2017-11-30T13:10:43.808Z,21.63
2017-11-30T13:13:09.971Z,19.83
2017-11-30T13:15:36.076Z,19.33
2017-11-30T13:18:02.240Z,18.27
2017-11-30T13:20:28.309Z,15.67
2017-11-30T13:22:54.452Z,20.90
2017-11-30T13:25:20.613Z,16.63
2017-11-30T13:27:46.739Z,18.40
2017-11-30T13:30:12.892Z,11.50
2017-11-30T13:32:39.072Z,11.90
2017-11-30T13:35:05.204Z,12.40
2017-11-30T13:37:31.371Z,17.73
2017-11-30T13:39:57.524Z,10.43
2017-11-30T13:42:23.604Z,8.53
2017-11-30T13:44:49.687Z,5.03
2017-11-30T13:47:15.865Z,6.47
2017-11-30T13:49:41.952Z,4.47
2017-11-30T13:52:08.129Z,4.57
2017-11-30T13:54:34.191Z,4.43
2017-11-30T13:57:00.296Z,5.93
2017-11-30T13:59:26.386Z,5.47
2017-11-30T14:01:52.484Z,5.73
2017-11-30T14:04:18.620Z,5.17
2017-11-30T14:06:44.748Z,6.67
2017-11-30T14:09:10.867Z,5.70
2017-11-30T14:11:37.106Z,4.90
2017-11-30T14:14:03.289Z,8.90
2017-11-30T14:16:29.428Z,6.90
2017-11-30T14:18:55.552Z,12.00
2017-11-30T14:21:22.121Z,10.87
2017-11-30T14:23:48.268Z,8.67
2017-11-30T14:26:14.352Z,9.00
2017-11-30T14:28:40.465Z,9.03
2017-11-30T14:31:06.559Z,14.27
2017-11-30T14:33:32.628Z,12.50
2017-11-30T14:35:58.712Z,14.93
2017-11-30T14:38:24.833Z,15.77
2017-11-30T14:40:51.272Z,13.57
2017-11-30T14:43:17.457Z,9.30
2017-11-30T14:45:43.564Z,8.80
2017-11-30T14:48:09.651Z,10.40
2017-11-30T14:50:35.760Z,7.53
2017-11-30T14:53:01.881Z,7.60
2017-11-30T14:55:28.036Z,11.07
2017-11-30T14:57:54.152Z,8.80
2017-11-30T15:00:20.267Z,7.27
2017-11-30T15:02:46.372Z,8.83
2017-11-30T15:05:12.538Z,7.83
2017-11-30T15:07:38.728Z,11.47
2017-11-30T15:10:04.849Z,7.90
2017-11-30T15:12:30.959Z,12.20
2017-11-30T15:14:57.120Z,11.77
2017-11-30T15:17:23.247Z,10.83
2017-11-30T15:19:49.389Z,11.67
2017-11-30T15:22:15.496Z,9.63
2017-11-30T15:24:41.603Z,9.63
2017-11-30T15:27:08.521Z,9.80
2017-11-30T15:29:34.599Z,11.57
2017-11-30T15:32:00.769Z,8.77
2017-11-30T15:34:26.920Z,9.37
2017-11-30T15:36:52.996Z,11.00
2017-11-30T15:39:19.127Z,8.80
2017-11-30T15:41:45.346Z,14.30
2017-11-30T15:44:11.526Z,9.70
2017-11-30T15:46:37.638Z,7.50
2017-11-30T15:49:03.772Z,10.60
2017-11-30T15:51:29.827Z,10.73
2017-11-30T15:53:55.970Z,9.57
2017-11-30T15:56:22.219Z,10.17
2017-11-30T15:58:48.407Z,7.73
2017-11-30T16:01:14.587Z,9.50
2017-11-30T16:03:40.748Z,8.90
2017-11-30T16:06:06.835Z,11.50
2017-11-30T16:08:32.978Z,8.93
2017-11-30T16:10:59.136Z,12.33
2017-11-30T16:13:25.818Z,11.10
2017-11-30T16:15:51.949Z,12.27
2017-11-30T16:18:18.040Z,14.10
2017-11-30T16:20:44.250Z,12.20
2017-11-30T16:23:10.406Z,17.50
2017-11-30T16:25:36.533Z,13.20
2017-11-30T16:28:02.668Z,13.57
2017-11-30T16:30:28.799Z,17.13
2017-11-30T16:32:54.983Z,19.97
2017-11-30T16:35:21.137Z,18.93
2017-11-30T16:37:47.311Z,14.60
2017-11-30T16:40:13.452Z,14.73
2017-11-30T16:42:39.709Z,13.93
2017-11-30T16:45:05.856Z,21.40
2017-11-30T16:47:31.978Z,22.50
2017-11-30T16:49:58.234Z,27.30
2017-11-30T16:52:24.432Z,22.70
2017-11-30T16:54:50.564Z,18.40
2017-11-30T16:57:16.775Z,17.60
2017-11-30T16:59:42.952Z,17.33
2017-11-30T17:02:09.089Z,17.03
2017-11-30T17:04:35.216Z,12.43
2017-11-30T17:07:01.351Z,12.20
2017-11-30T17:09:27.486Z,24.60
2017-11-30T17:11:53.581Z,14.13
2017-11-30T17:14:19.782Z,12.50
2017-11-30T17:16:45.910Z,24.27
2017-11-30T17:19:12.112Z,25.37
2017-11-30T17:21:38.235Z,20.83
2017-11-30T17:24:04.305Z,14.50
2017-11-30T17:26:30.433Z,15.30
2017-11-30T17:28:56.657Z,24.97
2017-11-30T17:31:22.761Z,25.33
2017-11-30T17:33:48.920Z,22.90
2017-11-30T17:36:15.055Z,23.53
2017-11-30T17:38:41.255Z,16.00
2017-11-30T17:41:07.401Z,14.40
2017-11-30T17:43:33.577Z,15.03
2017-11-30T17:45:59.817Z,14.40
2017-11-30T17:48:25.940Z,15.87
2017-11-30T17:50:52.052Z,17.73
2017-11-30T17:53:18.212Z,17.07
2017-11-30T17:55:44.395Z,13.33
2017-11-30T17:58:10.467Z,18.47
2017-11-30T18:00:36.620Z,23.57
2017-11-30T18:03:02.803Z,23.83
2017-11-30T18:05:28.924Z,16.90
2017-11-30T18:07:55.313Z,16.90
2017-11-30T18:10:21.456Z,12.00
2017-11-30T18:12:47.583Z,13.13
2017-11-30T18:15:13.692Z,18.20
2017-11-30T18:17:39.812Z,15.53
2017-11-30T18:20:05.965Z,18.53
2017-11-30T18:22:32.177Z,23.50
2017-11-30T18:24:58.397Z,17.70
2017-11-30T18:27:24.494Z,17.20
2017-11-30T18:29:50.662Z,17.57
2017-11-30T18:32:16.762Z,18.53
2017-11-30T18:34:42.936Z,21.27
2017-11-30T18:37:09.062Z,21.03
2017-11-30T18:39:35.248Z,24.80
2017-11-30T18:42:01.433Z,14.87
2017-11-30T18:44:27.572Z,13.90
2017-11-30T18:46:53.720Z,12.60
2017-11-30T18:49:19.953Z,19.03
2017-11-30T18:51:46.053Z,17.30
2017-11-30T18:54:12.220Z,18.43
2017-11-30T18:56:38.407Z,19.80
2017-11-30T18:59:04.549Z,24.30
2017-11-30T19:01:30.655Z,23.77
2017-11-30T19:03:56.798Z,25.17
2017-11-30T19:06:22.892Z,20.77
2017-11-30T19:08:49.128Z,20.43
2017-11-30T19:11:15.473Z,55.47
2017-11-30T19:13:41.661Z,25.70
2017-11-30T19:16:07.805Z,17.67
2017-11-30T19:18:33.947Z,15.77
2017-11-30T19:21:00.155Z,14.60
2017-11-30T19:23:26.311Z,17.10
2017-11-30T19:25:52.492Z,15.67
2017-11-30T19:28:18.606Z,19.60
2017-11-30T19:30:44.641Z,20.07
2017-11-30T19:33:10.755Z,17.20
2017-11-30T19:35:36.984Z,18.40
2017-11-30T19:38:03.061Z,18.77
2017-11-30T19:40:29.390Z,19.30
2017-11-30T19:42:55.644Z,19.70
2017-11-30T19:45:21.953Z,22.23
2017-11-30T19:47:48.209Z,23.60
2017-11-30T19:50:14.685Z,19.53
2017-11-30T19:52:41.010Z,18.80
2017-11-30T19:55:07.235Z,24.90
2017-11-30T19:57:33.516Z,20.37
2017-11-30T19:59:59.872Z,23.83
2017-11-30T20:02:26.183Z,21.47
2017-11-30T20:04:52.573Z,23.40
2017-11-30T20:07:19.766Z,24.63
2017-11-30T20:09:46.307Z,23.73
2017-11-30T20:12:12.653Z,18.60
2017-11-30T20:14:39.038Z,21.63
2017-11-30T20:17:05.389Z,18.67
2017-11-30T20:19:31.684Z,23.37
2017-11-30T20:21:58.715Z,28.33
2017-11-30T20:24:24.996Z,20.80
2017-11-30T20:26:51.883Z,24.53
2017-11-30T20:29:19.197Z,23.50
2017-11-30T20:31:45.503Z,22.70
2017-11-30T20:34:11.749Z,17.80
2017-11-30T20:36:38.004Z,28.40
2017-11-30T20:39:04.368Z,25.60
2017-11-30T20:41:30.761Z,22.83
2017-11-30T20:43:57.934Z,22.93
2017-11-30T20:46:24.198Z,24.57
2017-11-30T20:48:50.411Z,22.60
2017-11-30T20:51:16.652Z,24.07
2017-11-30T20:53:42.876Z,22.83
2017-11-30T20:56:09.502Z,25.60
2017-11-30T20:58:35.864Z,24.60
2017-11-30T21:01:02.114Z,25.33
2017-11-30T21:03:28.346Z,27.80
2017-11-30T21:05:54.518Z,25.57
2017-11-30T21:08:20.695Z,24.27
2017-11-30T21:10:46.885Z,25.20
2017-11-30T21:13:13.057Z,19.90
2017-11-30T21:15:40.365Z,28.87
2017-11-30T21:18:06.450Z,30.83
2017-11-30T21:20:32.588Z,54.17
2017-11-30T21:22:58.734Z,24.43
2017-11-30T21:25:24.833Z,27.17
2017-11-30T21:27:51.376Z,24.80
2017-11-30T21:30:17.577Z,25.33
2017-11-30T21:32:43.720Z,26.30
2017-11-30T21:35:09.839Z,28.67
2017-11-30T21:37:36.088Z,25.40
2017-11-30T21:40:02.325Z,30.37
2017-11-30T21:42:28.467Z,28.00
2017-11-30T21:44:54.537Z,27.33
2017-11-30T21:47:20.687Z,27.73
2017-11-30T21:49:46.746Z,28.87
2017-11-30T21:52:12.893Z,29.30
2017-11-30T21:54:38.997Z,26.60
2017-11-30T21:57:05.128Z,27.37
2017-11-30T21:59:31.272Z,27.53
2017-11-30T22:01:57.385Z,26.53
2017-11-30T22:04:23.460Z,26.37
2017-11-30T22:06:49.645Z,27.63
2017-11-30T22:09:15.741Z,30.40
2017-11-30T22:11:41.879Z,32.47
2017-11-30T22:14:08.020Z,27.43
2017-11-30T22:16:34.100Z,44.50
2017-11-30T22:19:00.648Z,42.33
2017-11-30T22:21:26.772Z,31.80
2017-11-30T22:23:52.852Z,44.00
2017-11-30T22:26:18.986Z,39.33
2017-11-30T22:28:45.098Z,34.63
2017-11-30T22:31:11.217Z,39.87
2017-11-30T22:33:37.283Z,41.07
2017-11-30T22:36:03.408Z,42.10
2017-11-30T22:38:29.540Z,31.63
2017-11-30T22:40:55.676Z,38.07
2017-11-30T22:43:21.864Z,30.73
2017-11-30T22:45:47.988Z,38.27
2017-11-30T22:48:14.067Z,32.03
2017-11-30T22:50:40.229Z,30.47
2017-11-30T22:53:06.370Z,28.50
2017-11-30T22:55:32.518Z,30.70
2017-11-30T22:57:58.673Z,29.87
2017-11-30T23:00:24.720Z,26.90
2017-11-30T23:02:50.818Z,35.23
2017-11-30T23:05:16.900Z,32.30
2017-11-30T23:07:43.033Z,32.90
2017-11-30T23:10:09.148Z,29.57
2017-11-30T23:12:35.261Z,30.83
2017-11-30T23:15:01.401Z,28.90
2017-11-30T23:17:27.531Z,28.30
2017-11-30T23:19:53.682Z,33.23
2017-11-30T23:22:19.816Z,32.87
2017-11-30T23:24:46.085Z,36.27
2017-11-30T23:27:12.213Z,31.67
2017-11-30T23:29:38.312Z,31.93
2017-11-30T23:32:04.460Z,34.57
2017-11-30T23:34:30.596Z,29.77
2017-11-30T23:36:56.714Z,44.63
2017-11-30T23:39:22.840Z,33.67
2017-11-30T23:41:48.988Z,38.50
2017-11-30T23:44:15.155Z,32.80
2017-11-30T23:46:41.252Z,39.93
2017-11-30T23:49:07.373Z,36.00
2017-11-30T23:51:33.553Z,36.40
2017-11-30T23:53:59.680Z,38.57
2017-11-30T23:56:25.775Z,41.80
2017-11-30T23:58:51.911Z,46.80
